createdAt,value
2023-08-29T00:01:51.384Z,7.90
2023-08-29T00:04:18.600Z,7.40
2023-08-29T00:06:45.895Z,7.43
2023-08-29T00:09:13.296Z,8.80
2023-08-29T00:11:40.775Z,7.93
2023-08-29T00:14:08.173Z,7.50
2023-08-29T00:16:35.457Z,7.95
2023-08-29T00:19:03.185Z,8.13
2023-08-29T00:21:30.289Z,7.30
2023-08-29T00:23:57.932Z,7.80
2023-08-29T00:26:26.439Z,8.02
2023-08-29T00:28:55.213Z,7.55
2023-08-29T00:31:22.387Z,7.55
2023-08-29T00:33:49.673Z,7.80
2023-08-29T00:36:16.862Z,7.63
2023-08-29T00:38:44.062Z,8.15
2023-08-29T00:41:12.329Z,8.10
2023-08-29T00:43:39.460Z,7.65
2023-08-29T00:46:08.461Z,6.82
2023-08-29T00:48:36.310Z,8.77
2023-08-29T00:51:04.327Z,7.82
2023-08-29T00:53:36.691Z,8.43
2023-08-29T00:56:06.294Z,8.55
2023-08-29T00:58:35.477Z,7.22
2023-08-29T01:01:02.824Z,7.22
2023-08-29T01:03:30.978Z,6.70
2023-08-29T01:05:58.270Z,6.60
2023-08-29T01:08:25.850Z,7.00
2023-08-29T01:11:05.573Z,7.18
2023-08-29T01:13:45.882Z,7.00
2023-08-29T01:16:16.822Z,7.05
2023-08-29T01:18:46.615Z,6.88
2023-08-29T01:21:38.151Z,6.38
2023-08-29T01:24:19.821Z,6.97
2023-08-29T01:26:47.794Z,5.97
2023-08-29T01:29:15.815Z,7.22
2023-08-29T01:31:43.375Z,7.25
2023-08-29T01:34:11.682Z,7.55
2023-08-29T01:36:40.503Z,7.10
2023-08-29T01:39:07.634Z,6.88
2023-08-29T01:41:34.980Z,7.50
2023-08-29T01:44:03.970Z,6.95
2023-08-29T01:46:31.699Z,7.15
2023-08-29T01:49:04.779Z,6.95
2023-08-29T01:51:32.048Z,7.93
2023-08-29T01:53:59.546Z,7.28
2023-08-29T01:56:30.064Z,7.88
2023-08-29T01:58:59.289Z,7.20
2023-08-29T02:01:27.137Z,7.10
2023-08-29T02:03:54.464Z,7.32
2023-08-29T02:06:21.670Z,6.85
2023-08-29T02:08:48.928Z,7.90
2023-08-29T02:11:16.097Z,8.70
2023-08-29T02:13:43.193Z,9.55
2023-08-29T02:16:10.304Z,10.48
2023-08-29T02:18:37.483Z,8.77
2023-08-29T02:21:05.045Z,8.88
2023-08-29T02:23:32.713Z,8.65
2023-08-29T02:26:07.301Z,8.48
2023-08-29T02:28:38.574Z,9.85
2023-08-29T02:31:08.686Z,9.10
2023-08-29T02:33:39.244Z,8.23
2023-08-29T02:36:07.510Z,8.20
2023-08-29T02:38:35.516Z,8.13
2023-08-29T02:41:03.178Z,7.82
2023-08-29T02:43:30.334Z,8.02
2023-08-29T02:45:57.685Z,8.77
2023-08-29T02:48:25.638Z,7.78
2023-08-29T02:50:52.779Z,7.88
2023-08-29T02:53:21.808Z,8.30
2023-08-29T02:55:53.604Z,8.20
2023-08-29T02:58:21.166Z,7.07
2023-08-29T03:00:49.289Z,7.65
2023-08-29T03:03:17.618Z,7.85
2023-08-29T03:05:58.035Z,7.65
2023-08-29T03:08:27.178Z,7.85
2023-08-29T03:10:54.681Z,8.13
2023-08-29T03:13:22.961Z,8.25
2023-08-29T03:15:50.358Z,8.32
2023-08-29T03:18:18.302Z,8.20
2023-08-29T03:20:46.084Z,7.60
2023-08-29T03:23:13.396Z,8.43
2023-08-29T03:25:40.893Z,8.45
2023-08-29T03:28:08.564Z,8.50
2023-08-29T03:30:36.130Z,7.60
2023-08-29T03:33:03.508Z,7.57
2023-08-29T03:35:31.409Z,7.97
2023-08-29T03:37:58.642Z,10.18
2023-08-29T03:40:25.829Z,10.10
2023-08-29T03:42:54.379Z,11.10
2023-08-29T03:45:21.599Z,11.63
2023-08-29T03:47:49.778Z,12.05
2023-08-29T03:50:19.151Z,11.57
2023-08-29T03:52:48.023Z,11.18
2023-08-29T03:55:15.557Z,12.10
2023-08-29T03:57:43.029Z,12.25
2023-08-29T04:00:12.204Z,11.90
2023-08-29T04:02:42.264Z,12.85
2023-08-29T04:05:19.150Z,12.15
2023-08-29T04:07:48.301Z,12.35
2023-08-29T04:10:15.943Z,10.80
2023-08-29T04:12:43.011Z,11.52
2023-08-29T04:15:12.476Z,11.07
2023-08-29T04:17:40.391Z,9.85
2023-08-29T04:20:10.002Z,9.02
2023-08-29T04:22:37.431Z,8.13
2023-08-29T04:25:05.884Z,7.57
2023-08-29T04:27:33.165Z,10.75
2023-08-29T04:30:00.297Z,11.75
2023-08-29T04:32:27.542Z,11.60
2023-08-29T04:34:54.792Z,11.77
2023-08-29T04:37:21.912Z,11.82
2023-08-29T04:39:49.105Z,11.00
2023-08-29T04:42:16.254Z,11.68
2023-08-29T04:44:45.216Z,12.20
2023-08-29T04:47:13.739Z,9.55
2023-08-29T04:49:41.417Z,8.32
2023-08-29T04:52:08.888Z,8.52
2023-08-29T04:54:35.922Z,7.60
2023-08-29T04:57:05.543Z,8.30
2023-08-29T04:59:32.874Z,8.18
2023-08-29T05:02:00.886Z,8.32
2023-08-29T05:04:28.048Z,8.15
2023-08-29T05:06:55.324Z,8.18
2023-08-29T05:09:22.414Z,7.68
2023-08-29T05:11:49.546Z,7.32
2023-08-29T05:14:16.918Z,8.10
2023-08-29T05:16:45.055Z,7.78
2023-08-29T05:19:12.393Z,7.93
2023-08-29T05:21:39.627Z,7.13
2023-08-29T05:24:09.990Z,6.70
2023-08-29T05:26:37.329Z,7.60
2023-08-29T05:29:04.514Z,7.57
2023-08-29T05:31:31.623Z,8.07
2023-08-29T05:33:58.797Z,7.68
2023-08-29T05:36:25.828Z,7.85
2023-08-29T05:38:53.386Z,7.80
2023-08-29T05:41:20.520Z,7.72
2023-08-29T05:43:47.604Z,7.50
2023-08-29T05:46:14.709Z,7.40
2023-08-29T05:48:44.578Z,7.40
2023-08-29T05:51:11.945Z,8.07
2023-08-29T05:53:39.288Z,7.88
2023-08-29T05:56:06.346Z,7.82
2023-08-29T05:58:34.214Z,8.57
2023-08-29T06:01:01.283Z,7.68
2023-08-29T06:03:29.501Z,8.20
2023-08-29T06:05:59.891Z,7.63
2023-08-29T06:08:45.389Z,7.68
2023-08-29T06:11:14.652Z,9.27
2023-08-29T06:13:42.115Z,9.52
2023-08-29T06:16:09.886Z,9.35
2023-08-29T06:18:37.046Z,10.80
2023-08-29T06:21:06.066Z,10.65
2023-08-29T06:23:36.768Z,10.15
2023-08-29T06:26:04.346Z,10.30
2023-08-29T06:28:33.390Z,10.75
2023-08-29T06:31:09.859Z,10.32
2023-08-29T06:33:38.985Z,10.80
2023-08-29T06:36:06.333Z,10.45
2023-08-29T06:38:35.687Z,10.13
2023-08-29T06:41:05.037Z,9.98
2023-08-29T06:43:32.454Z,9.80
2023-08-29T06:45:59.756Z,10.20
2023-08-29T06:48:27.353Z,10.18
2023-08-29T06:50:54.608Z,20.20
2023-08-29T06:53:22.195Z,11.93
2023-08-29T06:55:51.392Z,11.25
2023-08-29T06:58:19.118Z,9.63
2023-08-29T07:00:46.639Z,9.38
2023-08-29T07:03:14.752Z,9.98
2023-08-29T07:05:42.114Z,10.38
2023-08-29T07:08:10.121Z,9.73
2023-08-29T07:10:37.251Z,9.75
2023-08-29T07:13:07.722Z,8.27
2023-08-29T07:15:34.990Z,9.32
2023-08-29T07:18:02.615Z,9.30
2023-08-29T07:20:29.857Z,9.52
2023-08-29T07:22:57.400Z,9.25
2023-08-29T07:25:40.726Z,9.68
2023-08-29T07:28:14.953Z,9.40
2023-08-29T07:30:47.417Z,9.05
2023-08-29T07:33:16.236Z,9.05
2023-08-29T07:35:44.014Z,9.25
2023-08-29T07:38:11.531Z,8.43
2023-08-29T07:40:38.831Z,9.02
2023-08-29T07:43:10.066Z,9.38
2023-08-29T07:45:37.829Z,9.90
2023-08-29T07:48:09.181Z,9.25
2023-08-29T07:50:37.447Z,9.18
2023-08-29T07:53:04.698Z,9.60
2023-08-29T07:55:32.930Z,9.55
2023-08-29T07:58:01.497Z,9.02
2023-08-29T08:00:29.736Z,8.35
2023-08-29T08:02:57.346Z,8.73
2023-08-29T08:05:25.785Z,8.90
2023-08-29T08:07:52.871Z,7.57
2023-08-29T08:10:20.969Z,7.88
2023-08-29T08:12:49.641Z,8.13
2023-08-29T08:15:17.997Z,8.85
2023-08-29T08:17:45.571Z,8.55
2023-08-29T08:20:13.853Z,8.68
2023-08-29T08:22:42.374Z,8.60
2023-08-29T08:25:13.327Z,8.10
2023-08-29T08:27:44.334Z,7.90
2023-08-29T08:30:12.618Z,7.45
2023-08-29T08:32:39.814Z,7.00
2023-08-29T08:35:08.423Z,6.95
2023-08-29T08:37:36.514Z,7.72
2023-08-29T08:40:16.448Z,6.60
2023-08-29T08:42:45.986Z,6.55
2023-08-29T08:45:13.157Z,7.13
2023-08-29T08:47:41.397Z,6.50
2023-08-29T08:50:10.239Z,6.97
2023-08-29T08:52:40.335Z,6.32
2023-08-29T08:55:08.197Z,6.70
2023-08-29T08:57:37.729Z,7.65
2023-08-29T09:00:08.040Z,6.93
2023-08-29T09:02:36.988Z,7.00
2023-08-29T09:05:05.682Z,7.20
2023-08-29T09:07:38.530Z,7.22
2023-08-29T09:10:13.346Z,6.50
2023-08-29T09:12:51.319Z,6.97
2023-08-29T09:15:21.627Z,6.80
2023-08-29T09:17:54.306Z,7.28
2023-08-29T09:20:24.022Z,7.57
2023-08-29T09:22:51.122Z,7.43
2023-08-29T09:25:19.321Z,6.93
2023-08-29T09:27:48.869Z,8.10
2023-08-29T09:30:18.710Z,7.22
2023-08-29T09:32:48.585Z,6.25
2023-08-29T09:35:17.775Z,6.97
2023-08-29T09:37:52.512Z,8.55
2023-08-29T09:40:38.023Z,8.18
2023-08-29T09:43:07.158Z,7.15
2023-08-29T09:45:35.100Z,8.15
2023-08-29T09:48:04.346Z,8.98
2023-08-29T09:50:32.705Z,8.00
2023-08-29T09:53:01.555Z,7.00
2023-08-29T09:55:36.738Z,10.05
2023-08-29T09:58:08.145Z,8.27
2023-08-29T10:00:37.551Z,7.30
2023-08-29T10:03:10.388Z,7.32
2023-08-29T10:05:41.724Z,8.80
2023-08-29T10:08:19.740Z,7.97
2023-08-29T10:10:48.886Z,8.40
2023-08-29T10:13:17.322Z,7.43
2023-08-29T10:15:45.772Z,8.00
2023-08-29T10:18:13.201Z,7.25
2023-08-29T10:20:45.379Z,8.23
2023-08-29T10:23:15.249Z,8.25
2023-08-29T10:25:42.746Z,7.93
2023-08-29T10:28:12.312Z,8.18
2023-08-29T10:30:43.861Z,8.35
2023-08-29T10:33:12.568Z,8.25
2023-08-29T10:35:39.759Z,7.78
2023-08-29T10:38:16.912Z,8.98
2023-08-29T10:40:45.277Z,9.05
2023-08-29T10:43:20.558Z,9.10
2023-08-29T10:45:58.268Z,7.63
2023-08-29T10:48:34.021Z,8.23
2023-08-29T10:51:15.437Z,8.27
2023-08-29T10:53:50.798Z,7.70
2023-08-29T10:56:21.129Z,7.20
2023-08-29T10:58:51.948Z,7.53
2023-08-29T11:01:29.539Z,7.35
2023-08-29T11:03:58.259Z,7.82
2023-08-29T11:06:27.382Z,7.18
2023-08-29T11:09:17.270Z,7.05
2023-08-29T11:11:44.634Z,7.50
2023-08-29T11:14:12.205Z,8.10
2023-08-29T11:17:14.382Z,7.80
2023-08-29T11:19:43.182Z,7.35
2023-08-29T11:22:10.887Z,7.72
2023-08-29T11:24:38.416Z,7.68
2023-08-29T11:27:05.685Z,7.05
2023-08-29T11:29:38.762Z,6.85
2023-08-29T11:32:06.565Z,7.35
2023-08-29T11:34:36.738Z,7.13
2023-08-29T11:37:03.892Z,7.72
2023-08-29T11:39:31.006Z,7.20
2023-08-29T11:42:29.596Z,7.57
2023-08-29T11:45:12.033Z,7.95
2023-08-29T11:47:32.779Z,7.57
2023-08-29T11:49:59.942Z,7.85
2023-08-29T11:52:27.108Z,8.40
2023-08-29T11:54:55.354Z,7.53
2023-08-29T11:57:22.608Z,9.18
2023-08-29T11:59:52.558Z,7.88
2023-08-29T12:02:22.617Z,7.93
2023-08-29T12:04:56.937Z,7.10
2023-08-29T12:07:25.538Z,11.57
2023-08-29T12:09:54.274Z,9.23
2023-08-29T12:12:31.525Z,7.00
2023-08-29T12:14:59.150Z,7.03
2023-08-29T12:17:38.343Z,10.48
2023-08-29T12:20:25.854Z,7.60
2023-08-29T12:22:56.727Z,9.90
2023-08-29T12:25:25.858Z,6.43
2023-08-29T12:27:53.094Z,6.63
2023-08-29T12:30:20.515Z,11.80
2023-08-29T12:32:48.772Z,8.35
2023-08-29T12:35:20.364Z,6.90
2023-08-29T12:37:47.583Z,6.32
2023-08-29T12:40:15.985Z,7.93
2023-08-29T12:42:45.199Z,8.13
2023-08-29T12:45:12.453Z,7.32
2023-08-29T12:47:39.629Z,6.72
2023-08-29T12:50:07.804Z,6.93
2023-08-29T12:52:34.965Z,7.28
2023-08-29T12:55:02.180Z,8.40
2023-08-29T12:57:29.392Z,7.68
2023-08-29T12:59:56.527Z,9.07
2023-08-29T13:02:23.730Z,7.10
2023-08-29T13:04:50.961Z,6.85
2023-08-29T13:07:18.128Z,7.07
2023-08-29T13:09:46.437Z,7.72
2023-08-29T13:12:13.593Z,6.75
2023-08-29T13:14:40.709Z,7.40
2023-08-29T13:17:11.893Z,7.53
2023-08-29T13:19:40.788Z,7.68
2023-08-29T13:22:08.122Z,7.45
2023-08-29T13:24:36.258Z,7.28
2023-08-29T13:27:03.456Z,7.57
2023-08-29T13:29:31.674Z,7.07
2023-08-29T13:31:58.934Z,7.53
2023-08-29T13:34:26.144Z,8.30
2023-08-29T13:36:53.317Z,6.32
2023-08-29T13:39:20.424Z,6.82
2023-08-29T13:41:47.545Z,6.50
2023-08-29T13:44:14.680Z,7.38
2023-08-29T13:46:45.136Z,5.90
2023-08-29T13:49:13.258Z,8.70
2023-08-29T13:51:40.492Z,8.63
2023-08-29T13:54:07.706Z,8.48
2023-08-29T13:56:34.873Z,8.20
2023-08-29T13:59:04.630Z,7.53
2023-08-29T14:01:32.146Z,10.90
2023-08-29T14:03:59.481Z,9.52
2023-08-29T14:06:26.711Z,9.35
2023-08-29T14:08:53.854Z,10.02
2023-08-29T14:11:21.111Z,10.05
2023-08-29T14:13:48.327Z,9.48
2023-08-29T14:16:16.846Z,9.13
2023-08-29T14:18:47.402Z,9.15
2023-08-29T14:21:15.131Z,9.60
2023-08-29T14:23:45.490Z,9.68
2023-08-29T14:26:13.309Z,10.55
2023-08-29T14:28:40.556Z,9.93
2023-08-29T14:31:08.306Z,11.48
2023-08-29T14:33:35.383Z,10.23
2023-08-29T14:36:05.287Z,10.95
2023-08-29T14:38:32.892Z,11.70
2023-08-29T14:41:13.182Z,10.85
2023-08-29T14:43:41.962Z,11.10
2023-08-29T14:46:09.586Z,11.48
2023-08-29T14:48:38.626Z,9.27
2023-08-29T14:51:07.096Z,10.32
2023-08-29T14:53:35.674Z,12.27
2023-08-29T14:56:03.976Z,10.52
2023-08-29T14:58:33.349Z,10.02
2023-08-29T15:01:00.672Z,10.73
2023-08-29T15:03:27.927Z,10.70
2023-08-29T15:05:59.374Z,10.20
2023-08-29T15:08:27.501Z,11.02
2023-08-29T15:10:55.278Z,10.50
2023-08-29T15:13:23.442Z,10.27
2023-08-29T15:15:50.684Z,10.13
2023-08-29T15:18:18.574Z,9.52
2023-08-29T15:20:45.876Z,11.90
2023-08-29T15:23:16.057Z,11.45
2023-08-29T15:25:43.775Z,9.32
2023-08-29T15:28:12.102Z,9.65
2023-08-29T15:30:40.472Z,9.65
2023-08-29T15:33:07.628Z,9.45
2023-08-29T15:35:35.544Z,10.18
2023-08-29T15:38:02.748Z,9.60
2023-08-29T15:40:30.227Z,8.70
2023-08-29T15:43:00.030Z,10.13
2023-08-29T15:45:27.788Z,9.98
2023-08-29T15:47:56.701Z,10.13
2023-08-29T15:50:23.809Z,9.50
2023-08-29T15:52:50.962Z,10.27
2023-08-29T15:55:18.218Z,9.73
2023-08-29T15:57:45.296Z,9.25
2023-08-29T16:00:15.650Z,9.77
2023-08-29T16:02:46.277Z,10.30
2023-08-29T16:05:14.758Z,10.25
2023-08-29T16:07:44.309Z,9.38
2023-08-29T16:10:15.485Z,9.23
2023-08-29T16:12:43.945Z,9.57
2023-08-29T16:15:11.568Z,9.52
2023-08-29T16:17:38.736Z,9.93
2023-08-29T16:20:09.606Z,9.55
2023-08-29T16:22:37.614Z,9.27
2023-08-29T16:25:08.231Z,9.65
2023-08-29T16:27:37.128Z,9.45
2023-08-29T16:30:08.796Z,9.75
2023-08-29T16:32:36.879Z,10.82
2023-08-29T16:35:05.444Z,9.38
2023-08-29T16:37:33.056Z,9.63
2023-08-29T16:40:00.187Z,9.75
2023-08-29T16:42:29.511Z,9.50
2023-08-29T16:44:56.612Z,10.35
2023-08-29T16:47:24.302Z,9.95
2023-08-29T16:49:51.385Z,7.57
2023-08-29T16:52:19.503Z,8.60
2023-08-29T16:54:48.631Z,8.98
2023-08-29T16:57:15.777Z,8.27
2023-08-29T16:59:59.825Z,8.63
2023-08-29T17:02:27.506Z,8.70
2023-08-29T17:04:56.276Z,8.07
2023-08-29T17:07:23.858Z,8.00
2023-08-29T17:09:51.089Z,9.60
2023-08-29T17:12:22.278Z,8.35
2023-08-29T17:14:50.940Z,8.25
2023-08-29T17:17:18.423Z,8.82
2023-08-29T17:19:45.960Z,8.30
2023-08-29T17:22:13.155Z,8.18
2023-08-29T17:24:40.610Z,9.15
2023-08-29T17:27:07.948Z,9.50
2023-08-29T17:29:35.342Z,9.13
2023-08-29T17:32:02.705Z,9.73
2023-08-29T17:34:29.939Z,9.63
2023-08-29T17:36:59.987Z,9.93
2023-08-29T17:39:27.624Z,9.77
2023-08-29T17:41:57.897Z,9.73
2023-08-29T17:44:25.137Z,9.48
2023-08-29T17:46:52.225Z,9.65
2023-08-29T17:49:19.701Z,10.18
2023-08-29T17:51:47.677Z,9.70
2023-08-29T17:54:14.909Z,10.13
2023-08-29T17:56:42.172Z,9.07
2023-08-29T17:59:09.264Z,9.88
2023-08-29T18:01:36.511Z,9.50
2023-08-29T18:04:08.341Z,9.73
2023-08-29T18:06:36.212Z,10.13
2023-08-29T18:09:03.954Z,10.10
2023-08-29T18:11:31.408Z,10.90
2023-08-29T18:13:58.630Z,9.38
2023-08-29T18:16:25.725Z,10.65
2023-08-29T18:18:53.288Z,10.65
2023-08-29T18:21:20.447Z,11.15
2023-08-29T18:23:47.578Z,11.13
2023-08-29T18:26:14.777Z,9.27
2023-08-29T18:28:41.973Z,8.60
2023-08-29T18:31:09.251Z,11.07
2023-08-29T18:33:36.933Z,10.02
2023-08-29T18:36:04.397Z,10.13
2023-08-29T18:38:32.936Z,10.63
2023-08-29T18:41:00.099Z,16.05
2023-08-29T18:43:27.280Z,15.23
2023-08-29T18:45:54.385Z,9.95
2023-08-29T18:48:21.950Z,10.55
2023-08-29T18:50:49.066Z,9.30
2023-08-29T18:53:16.671Z,10.00
2023-08-29T18:55:45.378Z,8.40
2023-08-29T18:58:13.450Z,8.65
2023-08-29T19:00:40.641Z,9.10
2023-08-29T19:03:11.073Z,8.88
2023-08-29T19:05:40.774Z,9.75
2023-08-29T19:08:08.292Z,8.95
2023-08-29T19:10:40.206Z,8.55
2023-08-29T19:13:07.379Z,8.77
2023-08-29T19:15:34.696Z,8.50
2023-08-29T19:18:04.690Z,8.27
2023-08-29T19:20:32.872Z,15.27
2023-08-29T19:23:00.004Z,8.90
2023-08-29T19:25:27.363Z,9.20
2023-08-29T19:27:57.664Z,10.23
2023-08-29T19:30:25.075Z,9.23
2023-08-29T19:32:52.236Z,9.52
2023-08-29T19:35:20.201Z,9.50
2023-08-29T19:37:49.061Z,9.57
2023-08-29T19:40:16.244Z,9.13
2023-08-29T19:42:43.376Z,10.02
2023-08-29T19:45:11.195Z,10.65
2023-08-29T19:47:38.369Z,9.43
2023-08-29T19:50:06.081Z,9.98
2023-08-29T19:52:33.253Z,9.60
2023-08-29T19:55:00.877Z,10.35
2023-08-29T19:57:28.199Z,9.15
2023-08-29T19:59:55.322Z,9.68
2023-08-29T20:02:22.439Z,9.50
2023-08-29T20:04:49.824Z,8.88
2023-08-29T20:07:17.203Z,10.10
2023-08-29T20:09:44.261Z,8.95
2023-08-29T20:12:14.572Z,10.85
2023-08-29T20:14:42.311Z,10.32
2023-08-29T20:17:09.507Z,10.10
2023-08-29T20:19:36.682Z,10.57
2023-08-29T20:22:04.269Z,10.90
2023-08-29T20:24:31.398Z,11.50
2023-08-29T20:26:58.565Z,11.30
2023-08-29T20:29:29.749Z,11.05
2023-08-29T20:31:56.953Z,10.88
2023-08-29T20:34:24.082Z,10.65
2023-08-29T20:36:51.639Z,11.65
2023-08-29T20:39:19.319Z,10.10
2023-08-29T20:42:34.901Z,10.27
2023-08-29T20:45:26.441Z,10.35
2023-08-29T20:47:53.664Z,10.95
2023-08-29T20:50:22.653Z,10.40
2023-08-29T20:52:49.876Z,10.45
2023-08-29T20:55:17.080Z,10.38
2023-08-29T20:57:44.700Z,10.60
2023-08-29T21:00:15.278Z,10.70
2023-08-29T21:02:42.798Z,10.10
2023-08-29T21:05:10.400Z,10.38
2023-08-29T21:07:37.539Z,9.48
2023-08-29T21:10:05.055Z,10.93
2023-08-29T21:12:33.061Z,10.82
2023-08-29T21:15:00.164Z,10.93
2023-08-29T21:17:27.694Z,17.25
2023-08-29T21:19:54.941Z,10.35
2023-08-29T21:22:22.042Z,11.02
2023-08-29T21:24:49.177Z,10.38
2023-08-29T21:27:16.322Z,10.52
2023-08-29T21:29:44.860Z,9.80
2023-08-29T21:32:12.029Z,9.88
2023-08-29T21:34:39.500Z,9.25
2023-08-29T21:37:07.234Z,9.38
2023-08-29T21:39:34.435Z,9.35
2023-08-29T21:42:01.583Z,9.63
2023-08-29T21:44:28.744Z,10.13
2023-08-29T21:46:56.060Z,9.50
2023-08-29T21:49:23.599Z,11.38
2023-08-29T21:51:50.671Z,10.85
2023-08-29T21:54:17.875Z,9.60
2023-08-29T21:56:45.351Z,9.80
2023-08-29T21:59:12.540Z,9.20
2023-08-29T22:01:39.851Z,10.07
2023-08-29T22:04:09.069Z,9.35
2023-08-29T22:06:36.812Z,9.75
2023-08-29T22:09:04.396Z,9.60
2023-08-29T22:11:34.067Z,9.38
2023-08-29T22:14:01.203Z,9.40
2023-08-29T22:16:28.391Z,9.18
2023-08-29T22:18:55.597Z,10.18
2023-08-29T22:21:22.720Z,10.00
2023-08-29T22:23:49.907Z,9.13
2023-08-29T22:26:21.554Z,9.82
2023-08-29T22:28:48.750Z,9.88
2023-08-29T22:31:16.005Z,10.50
2023-08-29T22:33:43.092Z,10.02
2023-08-29T22:36:10.685Z,11.23
2023-08-29T22:38:38.136Z,10.63
2023-08-29T22:41:15.588Z,11.55
2023-08-29T22:43:49.028Z,10.48
2023-08-29T22:46:16.140Z,11.25
2023-08-29T22:48:43.345Z,10.75
2023-08-29T22:51:10.471Z,10.68
2023-08-29T22:53:37.927Z,10.48
2023-08-29T22:56:05.528Z,10.65
2023-08-29T22:58:33.383Z,10.85
2023-08-29T23:01:06.915Z,11.02
2023-08-29T23:03:34.639Z,9.85
2023-08-29T23:06:01.838Z,9.35
2023-08-29T23:08:29.289Z,9.30
2023-08-29T23:10:56.901Z,9.85
2023-08-29T23:13:23.978Z,9.70
2023-08-29T23:15:51.196Z,8.65
2023-08-29T23:18:18.333Z,8.73
2023-08-29T23:20:45.398Z,9.10
2023-08-29T23:23:12.945Z,9.48
2023-08-29T23:25:40.001Z,9.35
2023-08-29T23:28:07.639Z,8.48
2023-08-29T23:30:36.822Z,8.85
2023-08-29T23:33:04.670Z,9.30
2023-08-29T23:35:31.812Z,9.82
2023-08-29T23:37:59.519Z,8.98
2023-08-29T23:40:28.311Z,9.35
2023-08-29T23:42:55.541Z,8.40
2023-08-29T23:45:24.871Z,9.55
2023-08-29T23:47:51.984Z,9.55
2023-08-29T23:50:19.230Z,8.80
2023-08-29T23:52:46.354Z,9.25
2023-08-29T23:55:13.465Z,10.48
2023-08-29T23:57:40.654Z,9.48
